createdAt,value
2018-11-12T00:00:21.242Z,1.90
2018-11-12T00:02:54.886Z,2.10
2018-11-12T00:05:23.338Z,2.47
2018-11-12T00:07:51.819Z,2.00
2018-11-12T00:10:20.273Z,2.30
2018-11-12T00:12:48.730Z,1.93
2018-11-12T00:15:17.186Z,1.90
2018-11-12T00:17:45.639Z,1.73
2018-11-12T00:20:15.262Z,2.43
2018-11-12T00:22:44.318Z,1.90
2018-11-12T00:25:12.815Z,2.73
2018-11-12T00:27:41.450Z,3.77
2018-11-12T00:30:12.100Z,3.00
2018-11-12T00:32:40.695Z,3.20
2018-11-12T00:35:10.163Z,2.80
2018-11-12T00:37:39.059Z,2.67
2018-11-12T00:40:09.794Z,2.80
2018-11-12T00:42:38.260Z,2.97
2018-11-12T00:45:07.471Z,2.30
2018-11-12T00:47:35.982Z,2.20
2018-11-12T00:50:04.938Z,2.53
2018-11-12T00:52:33.438Z,2.30
2018-11-12T00:55:01.909Z,2.17
2018-11-12T00:57:30.368Z,2.60
2018-11-12T00:59:58.840Z,2.37
2018-11-12T01:02:27.287Z,2.10
2018-11-12T01:04:55.749Z,2.60
2018-11-12T01:07:24.206Z,2.47
2018-11-12T01:09:52.662Z,1.90
2018-11-12T01:12:21.125Z,2.00
2018-11-12T01:14:49.622Z,2.50
2018-11-12T01:17:18.094Z,2.00
2018-11-12T01:19:46.558Z,1.90
2018-11-12T01:22:15.020Z,2.03
2018-11-12T01:24:43.478Z,1.97
2018-11-12T01:27:11.919Z,3.40
2018-11-12T01:29:40.367Z,1.90
2018-11-12T01:32:08.836Z,1.97
2018-11-12T01:34:37.327Z,1.97
2018-11-12T01:37:05.886Z,2.03
2018-11-12T01:39:34.342Z,2.23
2018-11-12T01:42:02.837Z,2.20
2018-11-12T01:44:31.323Z,2.30
2018-11-12T01:46:59.779Z,2.17
2018-11-12T01:49:28.246Z,2.10
2018-11-12T01:51:56.688Z,2.13
2018-11-12T01:54:25.138Z,1.93
2018-11-12T01:56:53.590Z,1.60
2018-11-12T01:59:22.039Z,2.40
2018-11-12T02:01:50.599Z,2.03
2018-11-12T02:04:18.981Z,2.57
2018-11-12T02:06:47.431Z,2.20
2018-11-12T02:09:16.078Z,2.20
2018-11-12T02:11:44.526Z,2.50
2018-11-12T02:14:12.984Z,1.90
2018-11-12T02:16:41.442Z,1.97
2018-11-12T02:19:09.886Z,1.90
2018-11-12T02:21:38.360Z,2.20
2018-11-12T02:24:06.826Z,2.33
2018-11-12T02:26:35.282Z,1.97
2018-11-12T02:29:03.754Z,1.50
2018-11-12T02:31:32.255Z,2.00
2018-11-12T02:34:00.705Z,1.73
2018-11-12T02:36:29.168Z,1.70
2018-11-12T02:38:57.649Z,2.17
2018-11-12T02:41:26.094Z,2.13
2018-11-12T02:43:54.584Z,2.10
2018-11-12T02:46:23.059Z,2.20
2018-11-12T02:48:51.506Z,2.37
2018-11-12T02:51:19.959Z,1.87
2018-11-12T02:53:48.404Z,2.90
2018-11-12T02:56:16.838Z,2.10
2018-11-12T02:58:45.292Z,3.17
2018-11-12T03:01:17.175Z,2.37
2018-11-12T03:03:45.634Z,2.10
2018-11-12T03:06:14.106Z,2.40
2018-11-12T03:08:42.596Z,2.40
2018-11-12T03:11:11.053Z,2.43
2018-11-12T03:13:39.556Z,2.13
2018-11-12T03:16:08.006Z,2.30
2018-11-12T03:18:36.510Z,2.53
2018-11-12T03:21:05.035Z,2.43
2018-11-12T03:23:33.489Z,2.53
2018-11-12T03:26:01.941Z,2.43
2018-11-12T03:28:30.413Z,2.23
2018-11-12T03:30:58.863Z,2.10
2018-11-12T03:33:27.331Z,2.53
2018-11-12T03:35:55.811Z,1.90
2018-11-12T03:38:24.266Z,2.73
2018-11-12T03:40:52.719Z,2.80
2018-11-12T03:43:21.175Z,2.67
2018-11-12T03:45:49.630Z,2.83
2018-11-12T03:48:18.094Z,2.70
2018-11-12T03:50:46.548Z,2.90
2018-11-12T03:53:15.015Z,2.50
2018-11-12T03:55:43.507Z,2.87
2018-11-12T03:58:11.988Z,2.17
2018-11-12T04:00:40.469Z,2.20
2018-11-12T04:03:09.019Z,2.60
2018-11-12T04:05:37.481Z,2.33
2018-11-12T04:08:05.951Z,2.50
2018-11-12T04:10:34.407Z,2.27
2018-11-12T04:13:02.852Z,2.33
2018-11-12T04:15:31.424Z,2.57
2018-11-12T04:17:59.875Z,2.37
2018-11-12T04:20:28.346Z,2.97
2018-11-12T04:23:04.450Z,3.00
2018-11-12T04:25:34.554Z,2.90
2018-11-12T04:28:03.071Z,2.50
2018-11-12T04:30:31.548Z,3.00
2018-11-12T04:33:00.016Z,2.70
2018-11-12T04:35:28.530Z,2.00
2018-11-12T04:37:56.996Z,1.73
2018-11-12T04:40:25.462Z,1.83
2018-11-12T04:42:53.920Z,1.80
2018-11-12T04:45:23.604Z,1.60
2018-11-12T04:47:52.774Z,2.10
2018-11-12T04:50:22.470Z,2.00
2018-11-12T04:52:51.231Z,2.30
2018-11-12T04:55:20.909Z,2.03
2018-11-12T04:57:49.331Z,2.40
2018-11-12T05:00:22.199Z,2.47
2018-11-12T05:02:50.664Z,2.00
2018-11-12T05:05:20.394Z,3.53
2018-11-12T05:07:48.958Z,8.90
2018-11-12T05:10:18.706Z,1.90
2018-11-12T05:12:47.862Z,2.10
2018-11-12T05:15:17.654Z,2.10
2018-11-12T05:17:46.175Z,2.20
2018-11-12T05:20:17.004Z,2.20
2018-11-12T05:22:45.504Z,2.20
2018-11-12T05:25:14.039Z,2.50
2018-11-12T05:27:42.493Z,2.30
2018-11-12T05:30:16.410Z,2.87
2018-11-12T05:32:44.947Z,2.70
2018-11-12T05:35:14.673Z,2.43
2018-11-12T05:37:43.499Z,2.40
2018-11-12T05:40:13.930Z,2.67
2018-11-12T05:42:42.883Z,2.20
2018-11-12T05:45:11.782Z,3.17
2018-11-12T05:47:40.297Z,2.30
2018-11-12T05:50:14.379Z,2.70
2018-11-12T05:52:44.366Z,2.57
2018-11-12T05:55:14.290Z,3.27
2018-11-12T05:57:43.480Z,2.60
2018-11-12T06:00:13.306Z,3.33
2018-11-12T06:02:42.190Z,2.70
2018-11-12T06:05:12.281Z,2.73
2018-11-12T06:07:40.810Z,3.10
2018-11-12T06:10:12.076Z,2.83
2018-11-12T06:12:40.951Z,2.87
2018-11-12T06:15:10.426Z,3.50
2018-11-12T06:17:39.308Z,3.60
2018-11-12T06:20:19.975Z,3.73
2018-11-12T06:22:48.567Z,3.80
2018-11-12T06:25:18.443Z,3.37
2018-11-12T06:27:47.194Z,3.90
2018-11-12T06:30:24.362Z,2.83
2018-11-12T06:32:52.912Z,2.97
2018-11-12T06:35:21.741Z,3.50
2018-11-12T06:37:51.027Z,3.27
2018-11-12T06:40:20.730Z,2.90
2018-11-12T06:42:49.342Z,3.40
2018-11-12T06:45:19.658Z,3.43
2018-11-12T06:47:48.948Z,2.67
2018-11-12T06:50:20.518Z,3.20
2018-11-12T06:52:49.125Z,3.40
2018-11-12T06:55:18.391Z,3.20
2018-11-12T06:57:47.406Z,4.40
2018-11-12T07:00:18.375Z,3.60
2018-11-12T07:02:46.919Z,3.77
2018-11-12T07:05:15.821Z,3.87
2018-11-12T07:07:44.309Z,3.30
2018-11-12T07:10:15.327Z,3.20
2018-11-12T07:12:44.626Z,3.93
2018-11-12T07:15:15.535Z,3.53
2018-11-12T07:17:44.063Z,3.80
2018-11-12T07:20:14.985Z,4.60
2018-11-12T07:22:43.527Z,5.17
2018-11-12T07:25:13.008Z,3.73
2018-11-12T07:27:41.454Z,4.17
2018-11-12T07:30:16.266Z,4.10
2018-11-12T07:32:45.166Z,4.23
2018-11-12T07:35:14.605Z,3.73
2018-11-12T07:37:44.210Z,3.90
2018-11-12T07:40:13.682Z,4.40
2018-11-12T07:42:42.573Z,4.40
2018-11-12T07:45:13.322Z,4.63
2018-11-12T07:47:42.771Z,4.70
2018-11-12T07:50:14.127Z,4.30
2018-11-12T07:52:42.699Z,4.40
2018-11-12T07:55:13.580Z,4.47
2018-11-12T07:57:42.454Z,4.93
2018-11-12T08:00:14.502Z,4.13
2018-11-12T08:02:44.030Z,4.10
2018-11-12T08:05:13.112Z,4.37
2018-11-12T08:07:42.475Z,4.00
2018-11-12T08:10:16.862Z,3.80
2018-11-12T08:12:45.860Z,3.40
2018-11-12T08:15:15.760Z,3.10
2018-11-12T08:17:44.313Z,3.80
2018-11-12T08:20:17.447Z,3.23
2018-11-12T08:22:47.143Z,4.83
2018-11-12T08:25:15.659Z,2.97
2018-11-12T08:27:44.709Z,3.97
2018-11-12T08:30:19.377Z,3.67
2018-11-12T08:32:49.086Z,3.40
2018-11-12T08:35:17.950Z,3.27
2018-11-12T08:37:46.815Z,2.80
2018-11-12T08:40:17.007Z,2.63
2018-11-12T08:42:45.479Z,3.03
2018-11-12T08:45:15.151Z,3.40
2018-11-12T08:47:45.135Z,3.87
2018-11-12T08:50:15.691Z,3.10
2018-11-12T08:52:45.216Z,3.80
2018-11-12T08:55:15.388Z,3.50
2018-11-12T08:57:46.447Z,3.57
2018-11-12T09:00:15.247Z,3.20
2018-11-12T09:02:43.742Z,3.77
2018-11-12T09:05:13.647Z,3.60
2018-11-12T09:07:43.347Z,3.30
2018-11-12T09:10:13.734Z,3.10
2018-11-12T09:12:42.866Z,3.70
2018-11-12T09:15:11.967Z,2.70
2018-11-12T09:17:41.375Z,3.40
2018-11-12T09:20:12.254Z,3.07
2018-11-12T09:22:40.746Z,2.60
2018-11-12T09:25:12.931Z,3.27
2018-11-12T09:27:41.460Z,2.93
2018-11-12T09:30:17.026Z,2.60
2018-11-12T09:32:45.737Z,2.50
2018-11-12T09:35:30.703Z,3.30
2018-11-12T09:38:00.046Z,3.60
2018-11-12T09:40:33.647Z,2.93
2018-11-12T09:43:02.160Z,2.30
2018-11-12T09:45:30.662Z,2.87
2018-11-12T09:47:59.227Z,2.63
2018-11-12T09:50:28.273Z,2.70
2018-11-12T09:52:57.784Z,2.50
2018-11-12T09:55:27.234Z,3.40
2018-11-12T09:57:57.218Z,2.83
2018-11-12T10:00:25.821Z,3.20
2018-11-12T10:02:55.085Z,2.73
2018-11-12T10:05:23.895Z,2.67
2018-11-12T10:08:02.167Z,3.10
2018-11-12T10:10:39.501Z,2.70
2018-11-12T10:13:10.183Z,2.97
2018-11-12T10:15:38.135Z,3.07
2018-11-12T10:18:07.354Z,3.40
2018-11-12T10:20:32.579Z,4.13
2018-11-12T10:23:01.138Z,3.30
2018-11-12T10:25:29.615Z,3.13
2018-11-12T10:27:58.095Z,3.13
2018-11-12T10:30:26.564Z,2.70
2018-11-12T10:32:55.014Z,2.80
2018-11-12T10:35:23.466Z,2.90
2018-11-12T10:37:51.915Z,2.80
2018-11-12T10:40:21.750Z,3.20
2018-11-12T10:42:50.306Z,3.13
2018-11-12T10:45:18.944Z,3.10
2018-11-12T10:47:48.581Z,2.80
2018-11-12T10:50:17.034Z,3.00
2018-11-12T10:52:45.546Z,3.00
2018-11-12T10:55:19.143Z,3.03
2018-11-12T10:57:47.978Z,2.40
2018-11-12T11:00:28.194Z,3.50
2018-11-12T11:03:03.495Z,3.20
2018-11-12T11:05:32.294Z,2.87
2018-11-12T11:08:00.771Z,3.70
2018-11-12T11:10:30.169Z,3.30
2018-11-12T11:12:59.854Z,4.00
2018-11-12T11:15:29.028Z,3.10
2018-11-12T11:17:57.534Z,3.10
2018-11-12T11:20:26.098Z,3.40
2018-11-12T11:22:54.578Z,3.03
2018-11-12T11:25:23.038Z,3.57
2018-11-12T11:27:51.555Z,3.50
2018-11-12T11:30:20.031Z,3.43
2018-11-12T11:32:48.522Z,3.10
2018-11-12T11:35:17.939Z,3.53
2018-11-12T11:37:46.436Z,3.20
2018-11-12T11:40:17.503Z,3.50
2018-11-12T11:42:45.958Z,3.40
2018-11-12T11:45:15.542Z,3.83
2018-11-12T11:47:44.779Z,3.90
2018-11-12T11:50:15.907Z,3.43
2018-11-12T11:52:44.310Z,5.93
2018-11-12T11:55:15.195Z,4.80
2018-11-12T11:57:44.054Z,4.10
2018-11-12T12:00:18.783Z,4.17
2018-11-12T12:02:48.246Z,3.40
2018-11-12T12:05:17.551Z,3.20
2018-11-12T12:07:46.014Z,3.33
2018-11-12T12:10:15.194Z,4.10
2018-11-12T12:12:44.417Z,3.90
2018-11-12T12:15:14.242Z,3.63
2018-11-12T12:17:42.731Z,3.97
2018-11-12T12:20:16.314Z,3.60
2018-11-12T12:22:44.758Z,4.70
2018-11-12T12:25:14.649Z,4.00
2018-11-12T12:27:43.382Z,3.77
2018-11-12T12:30:29.466Z,3.53
2018-11-12T12:32:58.685Z,3.57
2018-11-12T12:35:27.160Z,3.00
2018-11-12T12:37:55.950Z,3.80
2018-11-12T12:40:25.079Z,4.00
2018-11-12T12:42:53.605Z,3.40
2018-11-12T12:45:23.700Z,3.13
2018-11-12T12:47:52.554Z,3.50
2018-11-12T12:50:21.066Z,3.77
2018-11-12T12:52:49.590Z,3.20
2018-11-12T12:55:18.553Z,2.73
2018-11-12T12:57:47.290Z,3.70
2018-11-12T13:00:18.026Z,2.93
2018-11-12T13:02:46.614Z,2.80
2018-11-12T13:05:15.138Z,2.70
2018-11-12T13:07:43.589Z,2.80
2018-11-12T13:10:14.477Z,3.20
2018-11-12T13:12:43.006Z,3.37
2018-11-12T13:15:13.076Z,3.27
2018-11-12T13:17:41.778Z,3.27
2018-11-12T13:20:12.011Z,2.90
2018-11-12T13:22:40.815Z,2.77
2018-11-12T13:25:09.737Z,2.77
2018-11-12T13:27:38.598Z,3.33
2018-11-12T13:30:18.822Z,2.90
2018-11-12T13:32:47.522Z,3.60
2018-11-12T13:35:17.531Z,2.90
2018-11-12T13:37:45.991Z,2.80
2018-11-12T13:40:17.255Z,3.10
2018-11-12T13:42:47.070Z,3.23
2018-11-12T13:45:15.608Z,3.00
2018-11-12T13:47:44.131Z,2.60
2018-11-12T13:50:18.858Z,2.07
2018-11-12T13:52:47.818Z,2.50
2018-11-12T13:55:17.463Z,2.60
2018-11-12T13:57:45.946Z,2.20
2018-11-12T14:00:16.716Z,2.60
2018-11-12T14:02:45.874Z,3.13
2018-11-12T14:05:16.011Z,2.13
2018-11-12T14:07:45.015Z,2.47
2018-11-12T14:10:14.751Z,2.60
2018-11-12T14:12:43.792Z,2.57
2018-11-12T14:15:14.106Z,2.27
2018-11-12T14:17:43.014Z,2.23
2018-11-12T14:20:11.683Z,2.43
2018-11-12T14:22:40.218Z,3.13
2018-11-12T14:25:10.675Z,3.17
2018-11-12T14:27:39.197Z,3.50
2018-11-12T14:30:09.351Z,2.97
2018-11-12T14:32:37.820Z,2.87
2018-11-12T14:35:07.235Z,3.70
2018-11-12T14:37:35.991Z,2.97
2018-11-12T14:40:05.132Z,3.00
2018-11-12T14:42:33.583Z,3.10
2018-11-12T14:45:02.094Z,3.00
2018-11-12T14:47:30.578Z,3.17
2018-11-12T14:49:59.044Z,3.00
2018-11-12T14:52:27.562Z,3.17
2018-11-12T14:54:56.076Z,3.70
2018-11-12T14:57:24.543Z,3.90
2018-11-12T14:59:53.015Z,2.90
2018-11-12T15:02:21.476Z,3.43
2018-11-12T15:04:49.966Z,4.00
2018-11-12T15:07:18.438Z,3.93
2018-11-12T15:09:46.931Z,3.80
2018-11-12T15:12:15.847Z,3.77
2018-11-12T15:14:44.407Z,3.90
2018-11-12T15:17:12.787Z,4.70
2018-11-12T15:19:41.242Z,4.50
2018-11-12T15:22:09.715Z,4.27
2018-11-12T15:24:38.175Z,3.90
2018-11-12T15:27:07.139Z,4.80
2018-11-12T15:29:36.341Z,4.40
2018-11-12T15:32:05.319Z,4.10
2018-11-12T15:34:33.815Z,3.93
2018-11-12T15:37:02.370Z,3.97
2018-11-12T15:39:30.787Z,5.63
2018-11-12T15:41:59.259Z,4.43
2018-11-12T15:44:27.718Z,4.37
2018-11-12T15:46:56.198Z,5.97
2018-11-12T15:49:24.678Z,4.73
2018-11-12T15:51:53.167Z,5.20
2018-11-12T15:54:21.634Z,4.70
2018-11-12T15:56:50.086Z,4.90
2018-11-12T15:59:18.547Z,5.00
2018-11-12T16:01:47.310Z,5.87
2018-11-12T16:04:15.903Z,5.30
2018-11-12T16:06:44.406Z,6.70
2018-11-12T16:09:15.114Z,6.60
2018-11-12T16:11:44.236Z,6.40
2018-11-12T16:14:12.666Z,4.90
2018-11-12T16:16:41.123Z,5.50
2018-11-12T16:19:10.265Z,5.10
2018-11-12T16:21:38.741Z,30.17
2018-11-12T16:24:07.539Z,7.80
2018-11-12T16:26:36.264Z,6.43
2018-11-12T16:29:05.019Z,6.70
2018-11-12T16:31:33.512Z,6.17
2018-11-12T16:34:02.043Z,6.00
2018-11-12T16:36:30.534Z,6.97
2018-11-12T16:38:58.983Z,6.67
2018-11-12T16:41:27.759Z,6.37
2018-11-12T16:43:56.219Z,6.07
2018-11-12T16:46:24.667Z,6.80
2018-11-12T16:48:53.474Z,6.27
2018-11-12T16:51:21.956Z,5.50
2018-11-12T16:53:50.407Z,5.97
2018-11-12T16:56:18.874Z,5.10
2018-11-12T16:58:47.316Z,4.17
2018-11-12T17:01:15.789Z,5.67
2018-11-12T17:03:44.237Z,5.70
2018-11-12T17:06:12.707Z,5.80
2018-11-12T17:08:41.214Z,4.97
2018-11-12T17:11:09.710Z,4.37
2018-11-12T17:13:38.153Z,4.93
2018-11-12T17:16:06.662Z,5.33
2018-11-12T17:18:35.119Z,5.87
2018-11-12T17:21:03.587Z,5.00
2018-11-12T17:23:32.047Z,6.47
2018-11-12T17:26:00.507Z,5.93
2018-11-12T17:28:28.963Z,5.20
2018-11-12T17:30:57.466Z,4.70
2018-11-12T17:33:25.894Z,5.17
2018-11-12T17:35:54.366Z,5.03
2018-11-12T17:38:22.843Z,4.87
2018-11-12T17:40:51.322Z,4.93
2018-11-12T17:43:19.857Z,5.03
2018-11-12T17:45:48.268Z,4.80
2018-11-12T17:48:16.782Z,5.00
2018-11-12T17:50:45.273Z,5.40
2018-11-12T17:53:13.755Z,4.00
2018-11-12T17:55:42.262Z,5.10
2018-11-12T17:58:10.713Z,4.77
2018-11-12T18:00:39.198Z,4.10
2018-11-12T18:03:07.669Z,4.80
2018-11-12T18:05:36.113Z,5.07
2018-11-12T18:08:04.687Z,4.17
2018-11-12T18:10:33.213Z,4.13
2018-11-12T18:13:01.674Z,3.90
2018-11-12T18:15:30.118Z,4.67
2018-11-12T18:17:58.583Z,5.33
2018-11-12T18:20:27.913Z,4.80
2018-11-12T18:22:57.085Z,4.47
2018-11-12T18:25:25.694Z,3.97
2018-11-12T18:27:54.746Z,4.30
2018-11-12T18:30:25.050Z,4.67
2018-11-12T18:32:54.474Z,4.80
2018-11-12T18:35:22.958Z,4.40
2018-11-12T18:37:51.536Z,4.57
2018-11-12T18:40:21.472Z,4.50
2018-11-12T18:42:49.985Z,4.73
2018-11-12T18:45:19.755Z,4.07
2018-11-12T18:47:48.255Z,4.80
2018-11-12T18:50:19.123Z,5.20
2018-11-12T18:52:47.779Z,4.73
2018-11-12T18:55:16.264Z,5.50
2018-11-12T18:57:45.865Z,3.70
2018-11-12T19:00:15.804Z,4.67
2018-11-12T19:02:44.350Z,5.33
2018-11-12T19:05:15.995Z,5.57
2018-11-12T19:07:45.412Z,5.43
2018-11-12T19:10:16.760Z,7.17
2018-11-12T19:12:45.962Z,7.30
2018-11-12T19:15:15.666Z,7.47
2018-11-12T19:17:45.283Z,7.23
2018-11-12T19:20:14.575Z,7.00
2018-11-12T19:22:43.088Z,7.90
2018-11-12T19:25:12.662Z,7.37
2018-11-12T19:27:41.467Z,7.03
2018-11-12T19:30:12.916Z,6.70
2018-11-12T19:32:41.466Z,6.80
2018-11-12T19:35:11.401Z,7.13
2018-11-12T19:37:39.987Z,8.20
2018-11-12T19:40:10.979Z,6.67
2018-11-12T19:42:39.386Z,6.30
2018-11-12T19:45:09.231Z,6.00
2018-11-12T19:47:37.679Z,6.60
2018-11-12T19:50:08.003Z,6.33
2018-11-12T19:52:36.515Z,6.60
2018-11-12T19:55:06.103Z,7.10
2018-11-12T19:57:34.597Z,6.47
2018-11-12T20:00:03.580Z,5.93
2018-11-12T20:02:32.780Z,5.87
2018-11-12T20:05:01.235Z,6.27
2018-11-12T20:07:29.698Z,5.43
2018-11-12T20:09:58.162Z,5.87
2018-11-12T20:12:26.619Z,6.40
2018-11-12T20:14:55.073Z,6.37
2018-11-12T20:17:23.534Z,5.50
2018-11-12T20:19:52.012Z,5.80
2018-11-12T20:22:20.458Z,5.50
2018-11-12T20:24:48.931Z,5.70
2018-11-12T20:27:17.562Z,6.00
2018-11-12T20:29:46.014Z,5.40
2018-11-12T20:32:14.462Z,5.57
2018-11-12T20:34:42.997Z,5.73
2018-11-12T20:37:11.455Z,6.83
2018-11-12T20:39:39.917Z,7.00
2018-11-12T20:42:08.466Z,6.30
2018-11-12T20:44:36.946Z,5.50
2018-11-12T20:47:05.499Z,4.43
2018-11-12T20:49:33.962Z,5.77
2018-11-12T20:52:02.432Z,6.10
2018-11-12T20:54:31.366Z,5.93
2018-11-12T20:56:59.817Z,5.97
2018-11-12T20:59:28.271Z,5.80
2018-11-12T21:01:56.839Z,4.97
2018-11-12T21:04:25.294Z,5.30
2018-11-12T21:06:53.845Z,5.43
2018-11-12T21:09:23.577Z,6.43
2018-11-12T21:11:52.034Z,5.77
2018-11-12T21:14:20.495Z,6.07
2018-11-12T21:16:48.951Z,6.60
2018-11-12T21:19:17.413Z,5.53
2018-11-12T21:21:45.891Z,6.00
2018-11-12T21:24:14.407Z,7.60
2018-11-12T21:26:42.858Z,6.27
2018-11-12T21:29:11.422Z,6.43
2018-11-12T21:31:39.899Z,6.20
2018-11-12T21:34:08.354Z,6.33
2018-11-12T21:36:36.807Z,4.97
2018-11-12T21:39:08.789Z,5.43
2018-11-12T21:41:37.259Z,3.83
2018-11-12T21:44:06.164Z,5.37
2018-11-12T21:46:34.615Z,5.30
2018-11-12T21:49:03.082Z,6.40
2018-11-12T21:51:31.554Z,5.53
2018-11-12T21:54:03.088Z,6.00
2018-11-12T21:56:31.591Z,5.43
2018-11-12T21:59:00.103Z,5.50
2018-11-12T22:01:28.550Z,6.10
2018-11-12T22:03:57.042Z,6.90
2018-11-12T22:06:25.514Z,5.27
2018-11-12T22:08:53.991Z,5.37
2018-11-12T22:11:22.434Z,5.03
2018-11-12T22:13:50.878Z,4.57
2018-11-12T22:16:19.336Z,5.33
2018-11-12T22:18:47.808Z,4.57
2018-11-12T22:21:16.280Z,5.70
2018-11-12T22:23:44.728Z,6.10
2018-11-12T22:26:13.197Z,4.93
2018-11-12T22:28:41.631Z,4.83
2018-11-12T22:31:10.083Z,4.60
2018-11-12T22:33:38.543Z,4.90
2018-11-12T22:36:07.026Z,4.27
2018-11-12T22:38:35.475Z,5.43
2018-11-12T22:41:03.966Z,5.50
2018-11-12T22:43:32.454Z,4.67
2018-11-12T22:46:01.028Z,5.77
2018-11-12T22:48:29.371Z,4.73
2018-11-12T22:50:57.826Z,5.00
2018-11-12T22:53:26.297Z,5.20
2018-11-12T22:55:54.764Z,4.97
2018-11-12T22:58:23.215Z,5.37
2018-11-12T23:00:51.679Z,5.00
2018-11-12T23:03:20.195Z,5.60
2018-11-12T23:05:48.694Z,5.33
2018-11-12T23:08:17.243Z,5.00
2018-11-12T23:10:45.695Z,5.07
2018-11-12T23:13:14.148Z,4.87
2018-11-12T23:15:42.686Z,4.40
2018-11-12T23:18:11.139Z,5.10
2018-11-12T23:20:39.630Z,4.47
2018-11-12T23:23:08.079Z,5.13
2018-11-12T23:25:36.535Z,5.20
2018-11-12T23:28:05.006Z,5.13
2018-11-12T23:30:33.554Z,4.80
2018-11-12T23:33:02.025Z,5.50
2018-11-12T23:35:30.542Z,5.10
2018-11-12T23:37:59.007Z,4.40
2018-11-12T23:40:27.462Z,4.80
2018-11-12T23:42:55.923Z,4.87
2018-11-12T23:45:24.402Z,4.73
2018-11-12T23:47:52.854Z,4.87
2018-11-12T23:50:22.218Z,5.20
2018-11-12T23:52:51.658Z,4.80
2018-11-12T23:55:20.544Z,4.70
2018-11-12T23:57:49.619Z,6.30
